This is the latest recevied weather packets stored in our database for station/object K3RTA. If no packets are shown the sender has not sent any weather packets the latest 10 day(s).
| Time | Temp. | Humidity | Pressure | Rain* | Wind** | Luminosity | Snow |
|---|---|---|---|---|---|---|---|
| 1777600207 | 12.22° C | 65% | 1010.6 hPa | 0 mm | - | - | - |
| 1777596006 | 13.33° C | 64% | 1009.3 hPa | 0 mm | - | - | - |
| 1777594807 | 13.89° C | 62% | 1008.9 hPa | 0 mm | - | - | - |
| 1777588207 | 17.78° C | 50% | 1006.8 hPa | 0 mm | - | - | - |
| 1777584006 | 18.33° C | 48% | 1006.1 hPa | 0 mm | - | - | - |
| 1777578608 | 18.33° C | 54% | 1005.5 hPa | 0 mm | - | - | - |
| 1777576808 | 18.89° C | 56% | 1005.6 hPa | 0 mm | - | - | - |
| 1777575607 | 18.33° C | 56% | 1005.6 hPa | 0 mm | - | - | - |
| 1777572007 | 17.78° C | 60% | 1005.9 hPa | 0 mm | - | - | - |
| 1777569606 | 17.22° C | 63% | 1006.3 hPa | 0 mm | - | - | - |
| 1777567807 | 16.67° C | 66% | 1006.5 hPa | 0 mm | - | - | - |
| 1777566007 | 16.11° C | 69% | 1006.5 hPa | 0 mm | - | - | - |
| 1777562408 | 15° C | 77% | 1007 hPa | 0 mm | - | - | - |
| 1777559407 | 13.33° C | 86% | 1007.6 hPa | 0 mm | - | - | - |
| 1777558807 | 13.33° C | 87% | 1007.4 hPa | 0 mm | - | - | - |
| 1777557606 | 12.78° C | 88% | 1007.3 hPa | 0 mm | - | - | - |
| 1777554607 | 12.22° C | 88% | 1006.1 hPa | 0 mm | - | - | - |
| 1777549807 | 10.56° C | 88% | 1006.7 hPa | 0 mm | - | - | - |
| 1777548006 | 10.56° C | 88% | 1006.5 hPa | 0 mm | - | - | - |
| 1777542607 | 10° C | 88% | 1006.2 hPa | 0 mm | - | - | - |
| 1777540206 | 9.44° C | 88% | 1006.1 hPa | 0 mm | - | - | - |
| 1777539607 | 9.44° C | 88% | 1006 hPa | 0 mm | - | - | - |
| 1777532406 | 10° C | 88% | 1005.8 hPa | 0 mm | - | - | - |
| 1777530006 | 10° C | 88% | 1006.2 hPa | 0 mm | - | - | - |
| 1777527607 | 10° C | 88% | 1006.7 hPa | 0.25 mm | - | - | - |
* Rain latest hour (hover to see other rain measurements)
** Current wind speed in m/s (hover to see current wind gust speed)